Pride of Baltimore II — WUW2120 — position and weather

sailwx.info

Track history (hours):
 
Tides and Currents Weather Stations Pressure Air Temp Water Temp Dewpoint Dewpoint Depression Visibility Wind Speed Wind Dir Waves Ship Positions

Pride of Baltimore II (United States)

Reproduction of an 1812-era Baltimore Clipper privateer.

Ship's website: http://www.marylandspride.org/

Owner: PRIDE OF BALTIMORE INC, BALTIMORE, MD. More information available from US FCC via Universal Licensing System and Coast Guard Vessel Documentation Center.

Last reported at 2014-Oct-29 12:31 UTC. Time now 2014-Oct-31 23:08 UTC.
Position N 39°00' W 076°16'.

Type: Sailing vessel. MMSI: 303302000.

Date/timePositionNaut miles runAvg speedWind from/ knotsBaromVisibWave heightAir tempDewpointWater temp
2014-Oct-29 12:31N 39°00' W 076°16'0 0.0
2014-Oct-29 02:24N 39°00' W 076°16'0 0.0
2014-Oct-29 01:21N 39°00' W 076°16'0 0.0
2014-Oct-29 00:30N 39°00' W 076°16'0 0.0
2014-Oct-28 23:30N 39°00' W 076°16'0 0.0
2014-Oct-28 22:29N 39°00' W 076°16'4 2.2
2014-Oct-28 20:33N 39°01' W 076°21'6 6.2
2014-Oct-28 19:33N 38°56' W 076°25'6 6.1
2014-Oct-28 18:31N 38°50' W 076°27'24 1.4
2014-Oct-28 02:11N 38°34' W 076°04'0 0.0
2014-Oct-28 01:32N 38°34' W 076°04'  
2014-Oct-21 01:20N 37°58' W 076°11'56 5.5
2014-Oct-20 15:09N 37°02' W 076°13'5 7.6
2014-Oct-20 14:33N 36°60' W 076°18'5 5.1
2014-Oct-20 13:33N 36°55' W 076°20'  
Track history (hours):
 
Tides and Currents Weather Stations Pressure Air Temp Water Temp Dewpoint Dewpoint Depression Visibility Wind Speed Wind Dir Waves Ship Positions

Pride of Baltimore II (United States)

Reproduction of an 1812-era Baltimore Clipper privateer.

Ship's website: http://www.marylandspride.org/

Owner: PRIDE OF BALTIMORE INC, BALTIMORE, MD. More information available from US FCC via Universal Licensing System and Coast Guard Vessel Documentation Center.

Last reported at 2014-Oct-29 12:31 UTC. Time now 2014-Oct-31 23:08 UTC.
Position N 39°00' W 076°16'.

Type: Sailing vessel. MMSI: 303302000.

Date/timePositionNaut miles runAvg speedWind from/ knotsBaromVisibWave heightAir tempDewpointWater temp
2014-Oct-29 12:31N 39°00' W 076°16'0 0.0
2014-Oct-29 02:24N 39°00' W 076°16'0 0.0
2014-Oct-29 01:21N 39°00' W 076°16'0 0.0
2014-Oct-29 00:30N 39°00' W 076°16'0 0.0
2014-Oct-28 23:30N 39°00' W 076°16'0 0.0
2014-Oct-28 22:29N 39°00' W 076°16'4 2.2
2014-Oct-28 20:33N 39°01' W 076°21'6 6.2
2014-Oct-28 19:33N 38°56' W 076°25'6 6.1
2014-Oct-28 18:31N 38°50' W 076°27'24 1.4
2014-Oct-28 02:11N 38°34' W 076°04'0 0.0
2014-Oct-28 01:32N 38°34' W 076°04'  
2014-Oct-21 01:20N 37°58' W 076°11'56 5.5
2014-Oct-20 15:09N 37°02' W 076°13'5 7.6
2014-Oct-20 14:33N 36°60' W 076°18'5 5.1
2014-Oct-20 13:33N 36°55' W 076°20'  

Dump ship's entire track history